createdAt,value
2023-05-02T00:01:16.942Z,6.10
2023-05-02T00:03:44.054Z,5.55
2023-05-02T00:06:12.098Z,6.38
2023-05-02T00:08:38.951Z,7.53
2023-05-02T00:11:05.863Z,5.85
2023-05-02T00:13:33.113Z,6.00
2023-05-02T00:15:59.840Z,6.90
2023-05-02T00:18:26.545Z,6.22
2023-05-02T00:20:53.290Z,7.38
2023-05-02T00:23:19.977Z,6.53
2023-05-02T00:25:46.812Z,7.68
2023-05-02T00:28:16.791Z,7.32
2023-05-02T00:30:47.342Z,7.28
2023-05-02T00:33:15.067Z,7.43
2023-05-02T00:35:42.181Z,7.15
2023-05-02T00:38:09.037Z,6.55
2023-05-02T00:40:49.834Z,8.57
2023-05-02T00:43:16.779Z,8.15
2023-05-02T00:45:44.837Z,7.30
2023-05-02T00:48:12.063Z,8.00
2023-05-02T00:50:40.582Z,7.95
2023-05-02T00:53:08.415Z,7.20
2023-05-02T00:55:36.032Z,6.97
2023-05-02T00:58:15.055Z,6.93
2023-05-02T01:01:05.969Z,7.20
2023-05-02T01:04:00.194Z,8.23
2023-05-02T01:06:42.249Z,7.70
2023-05-02T01:09:34.232Z,6.60
2023-05-02T01:12:03.312Z,6.93
2023-05-02T01:14:33.450Z,7.57
2023-05-02T01:17:05.578Z,6.45
2023-05-02T01:19:36.197Z,6.05
2023-05-02T01:22:08.055Z,9.10
2023-05-02T01:25:02.698Z,8.18
2023-05-02T01:27:40.089Z,6.18
2023-05-02T01:30:08.296Z,5.95
2023-05-02T01:32:39.452Z,6.40
2023-05-02T01:35:07.677Z,6.20
2023-05-02T01:37:36.682Z,6.25
2023-05-02T01:40:05.597Z,6.88
2023-05-02T01:42:34.665Z,7.97
2023-05-02T01:45:08.129Z,6.15
2023-05-02T01:47:37.716Z,6.60
2023-05-02T01:50:07.632Z,6.30
2023-05-02T01:52:35.583Z,6.07
2023-05-02T01:55:04.997Z,6.28
2023-05-02T01:57:32.514Z,6.72
2023-05-02T02:00:00.797Z,8.77
2023-05-02T02:02:29.682Z,7.38
2023-05-02T02:04:58.534Z,7.53
2023-05-02T02:07:25.624Z,7.00
2023-05-02T02:09:53.047Z,8.05
2023-05-02T02:12:31.126Z,7.97
2023-05-02T02:15:06.883Z,8.07
2023-05-02T02:18:07.759Z,8.50
2023-05-02T02:20:35.717Z,7.88
2023-05-02T02:23:07.246Z,8.20
2023-05-02T02:25:34.625Z,6.85
2023-05-02T02:28:01.733Z,8.50
2023-05-02T02:30:28.545Z,9.90
2023-05-02T02:32:55.256Z,8.95
2023-05-02T02:35:22.890Z,8.85
2023-05-02T02:38:03.133Z,9.05
2023-05-02T02:40:42.188Z,7.32
2023-05-02T02:43:31.953Z,6.60
2023-05-02T02:46:32.976Z,7.07
2023-05-02T02:49:22.277Z,8.98
2023-05-02T02:52:00.855Z,7.05
2023-05-02T02:54:35.424Z,9.93
2023-05-02T02:57:14.758Z,7.32
2023-05-02T02:59:52.820Z,8.45
2023-05-02T03:02:22.555Z,6.95
2023-05-02T03:04:53.654Z,7.05
2023-05-02T03:07:20.573Z,7.18
2023-05-02T03:09:48.517Z,8.15
2023-05-02T03:12:15.492Z,7.90
2023-05-02T03:14:42.670Z,6.80
2023-05-02T03:17:09.391Z,9.32
2023-05-02T03:19:36.422Z,10.48
2023-05-02T03:22:03.881Z,7.53
2023-05-02T03:24:30.581Z,8.98
2023-05-02T03:26:59.085Z,7.85
2023-05-02T03:29:26.513Z,9.35
2023-05-02T03:31:53.208Z,8.52
2023-05-02T03:34:21.970Z,9.27
2023-05-02T03:36:48.891Z,9.80
2023-05-02T03:39:15.745Z,10.77
2023-05-02T03:41:43.730Z,9.95
2023-05-02T03:44:10.644Z,8.77
2023-05-02T03:46:37.463Z,9.77
2023-05-02T03:49:04.149Z,9.27
2023-05-02T03:51:30.817Z,10.95
2023-05-02T03:53:58.409Z,10.88
2023-05-02T03:56:25.079Z,10.70
2023-05-02T03:58:51.792Z,9.57
2023-05-02T04:01:18.611Z,9.65
2023-05-02T04:03:45.662Z,9.25
2023-05-02T04:06:13.284Z,11.02
2023-05-02T04:08:40.078Z,11.43
2023-05-02T04:11:07.198Z,9.30
2023-05-02T04:13:33.889Z,11.50
2023-05-02T04:16:00.691Z,12.52
2023-05-02T04:18:27.456Z,10.13
2023-05-02T04:20:54.130Z,9.70
2023-05-02T04:23:20.840Z,11.05
2023-05-02T04:25:52.713Z,10.95
2023-05-02T04:28:20.492Z,10.10
2023-05-02T04:30:47.326Z,11.77
2023-05-02T04:33:14.262Z,12.27
2023-05-02T04:35:41.548Z,10.38
2023-05-02T04:38:08.771Z,9.25
2023-05-02T04:40:35.792Z,7.50
2023-05-02T04:43:02.943Z,8.00
2023-05-02T04:45:29.853Z,8.85
2023-05-02T04:47:56.873Z,7.90
2023-05-02T04:50:23.617Z,9.25
2023-05-02T04:52:50.329Z,9.07
2023-05-02T04:55:17.018Z,8.90
2023-05-02T04:57:43.702Z,8.90
2023-05-02T05:00:11.115Z,8.90
2023-05-02T05:02:39.354Z,11.35
2023-05-02T05:05:06.575Z,10.48
2023-05-02T05:07:33.260Z,11.10
2023-05-02T05:10:00.275Z,12.95
2023-05-02T05:12:27.279Z,12.25
2023-05-02T05:14:53.941Z,13.88
2023-05-02T05:17:20.585Z,11.05
2023-05-02T05:19:47.253Z,13.43
2023-05-02T05:22:13.904Z,13.20
2023-05-02T05:24:40.650Z,13.07
2023-05-02T05:27:07.614Z,13.32
2023-05-02T05:29:34.320Z,15.80
2023-05-02T05:32:01.729Z,15.07
2023-05-02T05:34:28.415Z,14.63
2023-05-02T05:36:55.100Z,17.90
2023-05-02T05:39:21.973Z,14.20
2023-05-02T05:41:48.650Z,13.45
2023-05-02T05:44:15.402Z,12.75
2023-05-02T05:46:42.096Z,14.18
2023-05-02T05:49:08.880Z,12.43
2023-05-02T05:51:36.333Z,13.68
2023-05-02T05:54:03.015Z,14.80
2023-05-02T05:56:29.727Z,17.55
2023-05-02T05:58:56.383Z,15.13
2023-05-02T06:01:23.025Z,15.40
2023-05-02T06:03:49.793Z,15.95
2023-05-02T06:06:16.607Z,12.80
2023-05-02T06:08:43.324Z,14.60
2023-05-02T06:11:11.630Z,17.38
2023-05-02T06:13:38.614Z,15.73
2023-05-02T06:16:06.279Z,14.00
2023-05-02T06:18:33.103Z,15.90
2023-05-02T06:21:06.738Z,15.00
2023-05-02T06:23:33.628Z,14.43
2023-05-02T06:26:01.583Z,12.75
2023-05-02T06:28:28.947Z,12.88
2023-05-02T06:31:03.994Z,11.77
2023-05-02T06:33:31.578Z,12.90
2023-05-02T06:36:01.303Z,11.10
2023-05-02T06:38:28.664Z,12.45
2023-05-02T06:40:55.422Z,11.98
2023-05-02T06:43:22.292Z,12.48
2023-05-02T06:45:49.036Z,10.98
2023-05-02T06:48:15.890Z,12.07
2023-05-02T06:50:42.741Z,10.45
2023-05-02T06:53:09.722Z,10.55
2023-05-02T06:55:36.515Z,11.40
2023-05-02T06:58:03.235Z,11.35
2023-05-02T07:00:29.946Z,10.07
2023-05-02T07:02:57.038Z,8.60
2023-05-02T07:05:23.867Z,11.27
2023-05-02T07:07:50.640Z,10.20
2023-05-02T07:10:17.314Z,10.77
2023-05-02T07:12:43.994Z,11.70
2023-05-02T07:15:11.000Z,9.13
2023-05-02T07:17:37.871Z,8.43
2023-05-02T07:20:05.283Z,10.23
2023-05-02T07:22:32.432Z,9.00
2023-05-02T07:25:01.089Z,9.13
2023-05-02T07:27:28.070Z,9.20
2023-05-02T07:29:54.733Z,10.65
2023-05-02T07:32:22.487Z,10.45
2023-05-02T07:34:49.247Z,9.70
2023-05-02T07:37:16.145Z,8.77
2023-05-02T07:39:42.833Z,8.77
2023-05-02T07:42:10.068Z,8.70
2023-05-02T07:44:36.872Z,16.10
2023-05-02T07:47:03.669Z,12.57
2023-05-02T07:49:31.428Z,8.50
2023-05-02T07:51:58.437Z,8.70
2023-05-02T07:54:28.008Z,11.32
2023-05-02T07:56:57.652Z,8.00
2023-05-02T07:59:24.510Z,7.72
2023-05-02T08:01:51.180Z,9.27
2023-05-02T08:04:18.062Z,9.55
2023-05-02T08:06:45.513Z,8.48
2023-05-02T08:09:12.208Z,10.70
2023-05-02T08:11:38.924Z,8.25
2023-05-02T08:14:05.645Z,8.60
2023-05-02T08:16:32.393Z,8.68
2023-05-02T08:18:59.052Z,8.85
2023-05-02T08:21:25.992Z,10.25
2023-05-02T08:23:52.697Z,9.13
2023-05-02T08:26:21.942Z,9.18
2023-05-02T08:28:48.558Z,7.53
2023-05-02T08:31:15.308Z,8.57
2023-05-02T08:33:42.057Z,7.57
2023-05-02T08:36:13.158Z,7.80
2023-05-02T08:38:40.242Z,7.88
2023-05-02T08:41:17.906Z,9.15
2023-05-02T08:43:47.715Z,8.00
2023-05-02T08:46:16.446Z,8.98
2023-05-02T08:48:45.477Z,7.55
2023-05-02T08:51:14.090Z,8.65
2023-05-02T08:53:41.794Z,9.05
2023-05-02T08:56:12.434Z,7.25
2023-05-02T08:58:40.808Z,7.32
2023-05-02T09:01:15.205Z,8.73
2023-05-02T09:06:18.778Z,7.05
2023-05-02T09:08:50.914Z,11.30
2023-05-02T09:11:18.689Z,9.00
2023-05-02T09:13:47.721Z,8.77
2023-05-02T09:16:25.792Z,10.90
2023-05-02T09:18:58.658Z,8.38
2023-05-02T09:21:34.788Z,7.57
2023-05-02T09:24:03.310Z,7.20
2023-05-02T09:26:32.655Z,8.38
2023-05-02T09:29:01.312Z,9.15
2023-05-02T09:31:55.083Z,8.20
2023-05-02T09:36:54.724Z,7.40
2023-05-02T09:39:26.819Z,8.90
2023-05-02T09:41:54.703Z,8.75
2023-05-02T09:44:27.068Z,9.65
2023-05-02T09:47:00.352Z,7.05
2023-05-02T09:49:44.989Z,7.65
2023-05-02T09:54:50.698Z,7.35
2023-05-02T09:57:17.703Z,8.77
2023-05-02T09:59:57.761Z,8.30
2023-05-02T10:02:26.001Z,8.40
2023-05-02T10:04:57.007Z,7.10
2023-05-02T10:07:24.779Z,7.72
2023-05-02T10:09:54.804Z,8.30
2023-05-02T10:12:26.926Z,9.45
2023-05-02T10:15:00.742Z,7.70
2023-05-02T10:17:55.009Z,7.75
2023-05-02T10:20:31.279Z,7.60
2023-05-02T10:23:00.891Z,8.85
2023-05-02T10:25:28.321Z,9.68
2023-05-02T10:27:58.727Z,9.00
2023-05-02T10:30:26.580Z,9.80
2023-05-02T10:32:56.475Z,12.65
2023-05-02T10:35:24.897Z,11.15
2023-05-02T10:37:52.602Z,13.02
2023-05-02T10:40:19.423Z,11.70
2023-05-02T10:42:51.583Z,10.55
2023-05-02T10:45:34.327Z,11.85
2023-05-02T10:48:20.579Z,9.93
2023-05-02T10:50:49.650Z,11.63
2023-05-02T10:53:23.637Z,11.20
2023-05-02T10:56:17.027Z,11.13
2023-05-02T10:58:46.201Z,12.10
2023-05-02T11:01:28.498Z,49.33
2023-05-02T11:04:03.570Z,12.07
2023-05-02T11:06:34.350Z,16.08
2023-05-02T11:09:14.660Z,13.43
2023-05-02T11:11:52.781Z,13.25
2023-05-02T11:14:25.848Z,12.07
2023-05-02T11:17:01.639Z,12.75
2023-05-02T11:19:31.426Z,17.08
2023-05-02T11:22:19.087Z,12.32
2023-05-02T11:24:50.193Z,13.05
2023-05-02T11:27:29.231Z,10.57
2023-05-02T11:30:07.022Z,13.13
2023-05-02T11:32:49.568Z,9.63
2023-05-02T11:35:20.187Z,13.27
2023-05-02T11:38:09.973Z,10.23
2023-05-02T11:40:36.877Z,11.82
2023-05-02T11:43:16.649Z,11.00
2023-05-02T11:45:43.787Z,9.88
2023-05-02T11:48:16.498Z,11.38
2023-05-02T11:50:50.121Z,11.07
2023-05-02T11:53:22.515Z,11.25
2023-05-02T11:56:08.975Z,9.18
2023-05-02T11:58:35.714Z,11.93
2023-05-02T12:01:15.931Z,10.20
2023-05-02T12:03:43.203Z,9.48
2023-05-02T12:06:16.047Z,9.55
2023-05-02T12:08:44.301Z,9.32
2023-05-02T12:11:15.391Z,10.13
2023-05-02T12:13:50.497Z,9.20
2023-05-02T12:16:18.484Z,10.10
2023-05-02T12:18:46.956Z,11.45
2023-05-02T12:21:13.922Z,8.35
2023-05-02T12:23:42.389Z,7.65
2023-05-02T12:26:25.148Z,9.10
2023-05-02T12:28:54.669Z,8.40
2023-05-02T12:31:22.669Z,7.28
2023-05-02T12:33:50.833Z,9.27
2023-05-02T12:36:21.592Z,9.57
2023-05-02T12:38:52.085Z,9.85
2023-05-02T12:41:20.143Z,6.30
2023-05-02T12:43:48.297Z,8.43
2023-05-02T12:46:14.977Z,9.45
2023-05-02T12:48:41.774Z,6.93
2023-05-02T12:51:21.579Z,6.95
2023-05-02T12:53:48.427Z,8.55
2023-05-02T12:56:15.324Z,8.98
2023-05-02T12:58:49.341Z,6.43
2023-05-02T13:01:16.313Z,5.97
2023-05-02T13:03:43.952Z,5.72
2023-05-02T13:06:11.370Z,5.68
2023-05-02T13:08:38.299Z,7.38
2023-05-02T13:11:05.220Z,8.05
2023-05-02T13:13:32.775Z,6.88
2023-05-02T13:15:59.719Z,6.50
2023-05-02T13:18:28.169Z,5.53
2023-05-02T13:20:55.071Z,4.65
2023-05-02T13:23:21.944Z,5.05
2023-05-02T13:25:48.664Z,6.32
2023-05-02T13:28:15.414Z,3.53
2023-05-02T13:30:42.435Z,3.88
2023-05-02T13:33:09.307Z,5.00
2023-05-02T13:35:36.465Z,3.38
2023-05-02T13:38:04.044Z,4.00
2023-05-02T13:40:30.848Z,3.40
2023-05-02T13:42:57.612Z,3.40
2023-05-02T13:45:24.353Z,4.07
2023-05-02T13:47:51.098Z,5.28
2023-05-02T13:50:17.891Z,4.97
2023-05-02T13:52:46.415Z,6.10
2023-05-02T13:55:14.423Z,9.55
2023-05-02T13:57:41.120Z,9.10
2023-05-02T14:00:09.795Z,6.28
2023-05-02T14:02:36.979Z,7.15
2023-05-02T14:05:03.912Z,7.22
2023-05-02T14:07:30.675Z,8.07
2023-05-02T14:09:57.695Z,14.55
2023-05-02T14:12:24.449Z,9.73
2023-05-02T14:14:51.491Z,11.68
2023-05-02T14:17:18.458Z,10.32
2023-05-02T14:19:45.117Z,14.25
2023-05-02T14:22:11.777Z,11.85
2023-05-02T14:24:38.452Z,10.93
2023-05-02T14:27:07.194Z,10.27
2023-05-02T14:29:33.875Z,8.63
2023-05-02T14:32:00.747Z,6.72
2023-05-02T14:34:27.617Z,6.95
2023-05-02T14:36:54.326Z,7.65
2023-05-02T14:39:21.180Z,10.02
2023-05-02T14:41:48.107Z,4.57
2023-05-02T14:44:14.779Z,6.35
2023-05-02T14:46:41.958Z,5.38
2023-05-02T14:49:08.678Z,5.70
2023-05-02T14:51:40.679Z,8.07
2023-05-02T14:54:07.382Z,7.18
2023-05-02T14:56:34.072Z,7.75
2023-05-02T14:59:00.751Z,9.68
2023-05-02T15:01:27.656Z,7.45
2023-05-02T15:04:05.201Z,7.15
2023-05-02T15:06:34.230Z,5.47
2023-05-02T15:09:01.758Z,6.43
2023-05-02T15:11:28.507Z,5.93
2023-05-02T15:13:56.825Z,6.00
2023-05-02T15:16:27.134Z,5.22
2023-05-02T15:18:54.275Z,4.63
2023-05-02T15:21:21.444Z,5.78
2023-05-02T15:23:48.121Z,5.47
2023-05-02T15:26:14.895Z,5.57
2023-05-02T15:28:41.654Z,6.25
2023-05-02T15:31:08.378Z,7.53
2023-05-02T15:33:35.096Z,5.80
2023-05-02T15:36:02.430Z,5.43
2023-05-02T15:38:29.255Z,5.70
2023-05-02T15:40:57.773Z,6.63
2023-05-02T15:43:25.099Z,6.00
2023-05-02T15:45:59.262Z,8.38
2023-05-02T15:48:30.810Z,7.53
2023-05-02T15:50:57.552Z,5.88
2023-05-02T15:53:24.302Z,6.25
2023-05-02T15:55:52.110Z,6.32
2023-05-02T15:58:19.396Z,8.98
2023-05-02T16:00:47.485Z,11.18
2023-05-02T16:03:15.373Z,14.15
2023-05-02T16:05:42.169Z,11.40
2023-05-02T16:08:09.069Z,11.40
2023-05-02T16:10:36.763Z,11.15
2023-05-02T16:13:03.632Z,14.93
2023-05-02T16:15:30.625Z,12.57
2023-05-02T16:17:57.637Z,13.90
2023-05-02T16:20:24.413Z,13.13
2023-05-02T16:22:51.381Z,13.52
2023-05-02T16:25:18.961Z,14.90
2023-05-02T16:27:45.845Z,14.18
2023-05-02T16:30:13.171Z,13.23
2023-05-02T16:32:40.617Z,13.05
2023-05-02T16:35:10.804Z,17.00
2023-05-02T16:37:38.031Z,12.18
2023-05-02T16:40:08.036Z,13.18
2023-05-02T16:42:35.171Z,13.27
2023-05-02T16:45:02.093Z,11.95
2023-05-02T16:47:28.949Z,13.93
2023-05-02T16:49:56.541Z,12.77
2023-05-02T16:52:24.066Z,15.63
2023-05-02T16:54:50.980Z,13.25
2023-05-02T16:57:21.694Z,16.42
2023-05-02T16:59:51.258Z,12.63
2023-05-02T17:02:20.023Z,12.88
2023-05-02T17:04:46.988Z,14.73
2023-05-02T17:07:13.704Z,14.02
2023-05-02T17:09:41.729Z,15.20
2023-05-02T17:12:10.824Z,14.30
2023-05-02T17:14:39.478Z,12.40
2023-05-02T17:17:06.226Z,13.52
2023-05-02T17:19:32.954Z,14.05
2023-05-02T17:22:00.410Z,13.25
2023-05-02T17:24:28.348Z,15.15
2023-05-02T17:26:55.190Z,12.43
2023-05-02T17:29:21.930Z,13.05
2023-05-02T17:31:48.599Z,14.07
2023-05-02T17:34:15.354Z,12.25
2023-05-02T17:36:42.155Z,12.88
2023-05-02T17:39:09.588Z,15.10
2023-05-02T17:41:36.778Z,12.23
2023-05-02T17:44:04.959Z,14.70
2023-05-02T17:46:32.687Z,14.73
2023-05-02T17:49:00.732Z,14.75
2023-05-02T17:51:27.677Z,16.80
2023-05-02T17:53:54.448Z,14.82
2023-05-02T17:56:21.480Z,14.02
2023-05-02T17:58:48.252Z,14.35
2023-05-02T18:01:15.656Z,12.82
2023-05-02T18:03:42.808Z,12.82
2023-05-02T18:06:15.139Z,13.52
2023-05-02T18:08:41.969Z,14.52
2023-05-02T18:11:17.368Z,13.73
2023-05-02T18:13:45.294Z,11.68
2023-05-02T18:16:13.711Z,11.93
2023-05-02T18:18:40.959Z,12.48
2023-05-02T18:21:09.502Z,13.23
2023-05-02T18:23:36.321Z,13.05
2023-05-02T18:26:03.529Z,12.05
2023-05-02T18:28:30.316Z,12.93
2023-05-02T18:30:57.020Z,12.07
2023-05-02T18:33:23.758Z,16.25
2023-05-02T18:35:50.661Z,13.82
2023-05-02T18:38:17.529Z,14.07
2023-05-02T18:40:44.336Z,29.35
2023-05-02T18:43:11.317Z,31.30
2023-05-02T18:45:38.027Z,43.83
2023-05-02T18:48:04.861Z,45.88
2023-05-02T18:50:31.751Z,39.10
2023-05-02T18:52:58.502Z,16.63
2023-05-02T18:55:25.446Z,10.02
2023-05-02T18:57:52.243Z,13.10
2023-05-02T19:00:21.266Z,11.98
2023-05-02T19:02:51.014Z,12.82
2023-05-02T19:05:17.772Z,12.38
2023-05-02T19:07:44.904Z,14.40
2023-05-02T19:10:12.368Z,13.63
2023-05-02T19:12:39.578Z,11.70
2023-05-02T19:15:07.876Z,11.68
2023-05-02T19:17:35.151Z,17.25
2023-05-02T19:20:01.911Z,9.80
2023-05-02T19:22:30.408Z,14.57
2023-05-02T19:24:57.553Z,10.95
2023-05-02T19:27:24.523Z,14.18
2023-05-02T19:29:54.031Z,11.77
2023-05-02T19:32:25.309Z,10.50
2023-05-02T19:34:52.086Z,10.65
2023-05-02T19:37:18.768Z,16.13
2023-05-02T19:39:45.428Z,12.25
2023-05-02T19:42:12.071Z,8.55
2023-05-02T19:44:38.710Z,9.02
2023-05-02T19:47:05.540Z,9.02
2023-05-02T19:49:32.494Z,9.45
2023-05-02T19:51:59.280Z,13.30
2023-05-02T19:54:25.966Z,10.52
2023-05-02T19:56:52.636Z,11.60
2023-05-02T19:59:19.313Z,11.27
2023-05-02T20:01:46.726Z,9.63
2023-05-02T20:04:13.621Z,9.18
2023-05-02T20:06:40.366Z,9.70
2023-05-02T20:09:07.175Z,8.77
2023-05-02T20:11:33.865Z,10.02
2023-05-02T20:14:00.780Z,8.57
2023-05-02T20:16:28.156Z,9.32
2023-05-02T20:18:54.816Z,8.85
2023-05-02T20:21:21.460Z,11.48
2023-05-02T20:23:48.102Z,10.75
2023-05-02T20:26:16.342Z,15.00
2023-05-02T20:28:43.202Z,12.40
2023-05-02T20:31:10.271Z,10.02
2023-05-02T20:33:44.581Z,10.93
2023-05-02T20:36:13.367Z,9.43
2023-05-02T20:38:42.477Z,9.75
2023-05-02T20:41:12.633Z,11.32
2023-05-02T20:43:41.176Z,10.38
2023-05-02T20:46:12.293Z,10.98
2023-05-02T20:48:39.055Z,11.40
2023-05-02T20:51:05.801Z,10.32
2023-05-02T20:53:32.458Z,9.32
2023-05-02T20:55:59.118Z,10.10
2023-05-02T20:58:26.254Z,11.55
2023-05-02T21:00:54.022Z,8.45
2023-05-02T21:03:21.653Z,10.25
2023-05-02T21:05:53.607Z,8.98
2023-05-02T21:08:20.859Z,10.73
2023-05-02T21:10:47.918Z,9.77
2023-05-02T21:13:14.620Z,9.98
2023-05-02T21:15:41.627Z,11.18
2023-05-02T21:18:08.376Z,10.35
2023-05-02T21:20:36.034Z,9.20
2023-05-02T21:23:02.851Z,10.20
2023-05-02T21:25:29.580Z,10.10
2023-05-02T21:27:56.498Z,8.13
2023-05-02T21:30:24.449Z,11.38
2023-05-02T21:32:51.229Z,9.40
2023-05-02T21:35:17.959Z,9.75
2023-05-02T21:37:44.752Z,9.23
2023-05-02T21:40:12.038Z,8.00
2023-05-02T21:42:38.839Z,7.82
2023-05-02T21:45:06.630Z,7.13
2023-05-02T21:47:33.318Z,7.80
2023-05-02T21:50:00.299Z,9.45
2023-05-02T21:52:27.351Z,9.05
2023-05-02T21:54:54.349Z,8.93
2023-05-02T21:57:21.235Z,8.93
2023-05-02T21:59:48.129Z,9.48
2023-05-02T22:02:14.833Z,8.70
2023-05-02T22:04:41.543Z,9.35
2023-05-02T22:07:08.282Z,8.02
2023-05-02T22:09:34.995Z,10.63
2023-05-02T22:12:02.922Z,6.35
2023-05-02T22:14:41.102Z,8.35
2023-05-02T22:17:11.637Z,6.65
2023-05-02T22:19:39.305Z,7.13
2023-05-02T22:22:06.632Z,8.98
2023-05-02T22:24:33.592Z,6.57
2023-05-02T22:27:00.370Z,12.98
2023-05-02T22:29:27.116Z,12.30
2023-05-02T22:31:53.756Z,6.78
2023-05-02T22:34:20.563Z,8.13
2023-05-02T22:36:47.214Z,7.68
2023-05-02T22:39:15.658Z,7.72
2023-05-02T22:41:43.138Z,5.93
2023-05-02T22:44:11.027Z,6.70
2023-05-02T22:46:38.693Z,5.57
2023-05-02T22:49:07.663Z,5.95
2023-05-02T22:51:34.366Z,6.10
2023-05-02T22:54:04.826Z,5.03
2023-05-02T22:56:31.509Z,6.00
2023-05-02T22:58:58.164Z,8.32
2023-05-02T23:01:24.970Z,6.00
2023-05-02T23:03:52.010Z,6.88
2023-05-02T23:06:18.793Z,7.75
2023-05-02T23:08:45.524Z,5.10
2023-05-02T23:11:12.310Z,7.03
2023-05-02T23:13:38.982Z,8.30
2023-05-02T23:16:06.176Z,7.50
2023-05-02T23:18:32.967Z,13.98
2023-05-02T23:20:59.622Z,10.63
2023-05-02T23:23:26.473Z,9.30
2023-05-02T23:25:53.169Z,7.68
2023-05-02T23:28:19.905Z,8.55
2023-05-02T23:30:47.294Z,8.70
2023-05-02T23:33:14.535Z,9.98
2023-05-02T23:35:41.545Z,8.52
2023-05-02T23:38:08.270Z,8.57
2023-05-02T23:40:35.536Z,8.13
2023-05-02T23:43:02.221Z,8.82
2023-05-02T23:45:28.925Z,7.38
2023-05-02T23:47:55.847Z,7.43
2023-05-02T23:50:22.556Z,8.30
2023-05-02T23:52:49.227Z,7.80
2023-05-02T23:55:16.022Z,7.85
2023-05-02T23:57:42.717Z,7.35
